Time;durP1;ratioP1;P1;durP2;ratioP2;P2;SDS_P1;SDS_P2;PMS_P1;PMS_P2;Temp;Humidity;BMP_temperature;BMP_pressure;BME280_temperature;BME280_humidity;BME280_pressure;Samples;Min_cycle;Max_cycle;Signal;HPM_P1;HPM_P2
2022/07/11 00:02:04;;;;;;;1.45;0.98;;;14.70;99.90;;;;;;5002544;28;20533;-70
2022/07/11 00:04:31;;;;;;;2.85;1.23;;;14.70;99.90;;;;;;5001438;28;20048;-69
2022/07/11 00:06:58;;;;;;;4.60;1.33;;;14.70;99.90;;;;;;5000841;28;20388;-69
2022/07/11 00:09:23;;;;;;;0.82;0.82;;;14.70;99.90;;;;;;5001805;28;20041;-69
2022/07/11 00:11:49;;;;;;;3.22;1.15;;;14.70;99.90;;;;;;5002199;28;20030;-69
2022/07/11 00:14:16;;;;;;;0.70;0.70;;;14.60;99.90;;;;;;5002171;28;20312;-68
2022/07/11 00:16:42;;;;;;;1.40;1.10;;;14.60;99.90;;;;;;5001794;28;20033;-69
2022/07/11 00:19:08;;;;;;;3.20;1.45;;;14.60;99.90;;;;;;5002276;28;20018;-70
2022/07/11 00:21:35;;;;;;;2.30;1.38;;;14.60;99.90;;;;;;5001551;28;20086;-70
2022/07/11 00:24:02;;;;;;;10.13;1.67;;;14.60;99.90;;;;;;5001819;28;20073;-69
2022/07/11 00:26:27;;;;;;;3.67;1.27;;;14.60;99.90;;;;;;5001616;28;20015;-70
2022/07/11 00:28:53;;;;;;;4.60;1.40;;;14.50;99.90;;;;;;5002004;28;20035;-69
2022/07/11 00:31:19;;;;;;;6.95;1.20;;;14.50;99.90;;;;;;5002411;28;20033;-69
2022/07/11 00:33:45;;;;;;;4.07;0.73;;;14.60;99.90;;;;;;5001924;28;20478;-69
2022/07/11 00:36:11;;;;;;;3.60;1.50;;;14.60;99.90;;;;;;5001699;28;20035;-70
2022/07/11 00:38:37;;;;;;;12.02;1.77;;;14.60;99.90;;;;;;5002275;28;20050;-69
2022/07/11 00:41:03;;;;;;;4.35;1.83;;;14.60;99.90;;;;;;5001829;28;20193;-69
2022/07/11 00:43:33;;;;;;;1.60;0.95;;;14.60;99.90;;;;;;4999629;28;20023;-69
2022/07/11 00:46:00;;;;;;;2.47;1.23;;;14.60;99.90;;;;;;5001658;28;20077;-69
2022/07/11 00:48:25;;;;;;;0.98;0.82;;;14.70;99.90;;;;;;5001703;28;20094;-69
2022/07/11 00:50:51;;;;;;;3.70;1.50;;;14.60;99.90;;;;;;5002080;28;20049;-69
2022/07/11 00:53:18;;;;;;;8.38;1.73;;;14.50;99.90;;;;;;5000737;28;20029;-69
2022/07/11 00:55:45;;;;;;;10.68;1.88;;;14.60;99.90;;;;;;5001369;28;20112;-71
2022/07/11 00:58:12;;;;;;;3.97;1.20;;;14.60;99.90;;;;;;5002211;28;20026;-69
2022/07/11 01:00:38;;;;;;;1.65;1.10;;;14.60;99.90;;;;;;5001583;28;20022;-71
2022/07/11 01:03:04;;;;;;;2.00;1.52;;;14.60;99.90;;;;;;5004172;28;20030;-70
2022/07/11 01:05:29;;;;;;;2.33;1.38;;;14.70;99.90;;;;;;5004695;28;20086;-70
2022/07/11 01:07:55;;;;;;;1.73;1.33;;;14.60;99.90;;;;;;5004637;28;20018;-70
2022/07/11 01:10:21;;;;;;;1.25;1.10;;;14.70;99.90;;;;;;5004660;28;20045;-70
2022/07/11 01:12:46;;;;;;;3.10;1.23;;;14.60;99.90;;;;;;5005118;28;20054;-70
2022/07/11 01:15:14;;;;;;;2.78;1.10;;;14.60;99.90;;;;;;5005719;28;20328;-69
2022/07/11 01:17:40;;;;;;;2.92;1.25;;;14.60;99.90;;;;;;5005028;28;20722;-71
2022/07/11 01:20:06;;;;;;;6.38;1.20;;;14.60;99.90;;;;;;5005643;28;20039;-69
2022/07/11 01:22:39;;;;;;;4.82;1.55;;;14.70;99.90;;;;;;5005210;28;20034;-69
2022/07/11 01:25:06;;;;;;;6.20;1.35;;;14.60;99.90;;;;;;5003320;28;20051;-69
2022/07/11 01:27:32;;;;;;;7.50;2.08;;;14.70;99.90;;;;;;5004917;28;20065;-69
2022/07/11 01:29:58;;;;;;;3.63;1.77;;;14.70;99.90;;;;;;5005240;28;20043;-69
2022/07/11 01:32:23;;;;;;;4.25;1.70;;;14.60;99.90;;;;;;5004469;28;20033;-70
2022/07/11 01:34:49;;;;;;;5.97;1.50;;;14.60;99.90;;;;;;5005236;28;20034;-70
2022/07/11 01:37:15;;;;;;;1.80;1.23;;;14.60;99.90;;;;;;5005250;28;20026;-69
2022/07/11 01:39:40;;;;;;;5.78;1.60;;;14.60;99.90;;;;;;5004216;28;20089;-69
2022/07/11 01:42:06;;;;;;;2.58;0.93;;;14.70;99.90;;;;;;5005070;28;20027;-69
2022/07/11 01:44:31;;;;;;;4.50;1.60;;;14.70;99.90;;;;;;5004209;28;20041;-71
2022/07/11 01:46:57;;;;;;;4.47;1.40;;;14.70;99.90;;;;;;5004564;28;20015;-69
2022/07/11 01:49:22;;;;;;;3.15;1.75;;;14.70;99.90;;;;;;5005013;28;20062;-70
2022/07/11 01:51:49;;;;;;;1.55;0.80;;;14.70;99.90;;;;;;5004544;28;20026;-69
2022/07/11 01:54:15;;;;;;;2.88;1.10;;;14.70;99.90;;;;;;5004456;28;20037;-71
2022/07/11 01:56:40;;;;;;;1.20;0.80;;;14.70;99.90;;;;;;5004890;28;20025;-69
2022/07/11 01:59:06;;;;;;;4.78;1.02;;;14.60;99.90;;;;;;5004720;28;20121;-69
2022/07/11 02:01:32;;;;;;;7.28;1.38;;;14.70;99.90;;;;;;5004264;28;20098;-71
2022/07/11 02:03:59;;;;;;;2.78;1.33;;;14.70;99.90;;;;;;5004345;28;20042;-70
2022/07/11 02:06:24;;;;;;;1.75;0.93;;;14.70;99.90;;;;;;5004227;28;20014;-70
2022/07/11 02:08:50;;;;;;;2.75;1.40;;;14.70;99.90;;;;;;5004134;28;20141;-71
2022/07/11 02:11:16;;;;;;;1.92;1.25;;;14.80;99.90;;;;;;5003922;28;20022;-70
2022/07/11 02:13:41;;;;;;;2.00;0.73;;;14.70;99.90;;;;;;5003745;28;20026;-70
2022/07/11 02:16:07;;;;;;;3.00;0.90;;;14.70;99.90;;;;;;5004697;28;20399;-69
2022/07/11 02:18:34;;;;;;;18.80;1.58;;;14.70;99.90;;;;;;5004395;28;20038;-70
2022/07/11 02:21:00;;;;;;;1.58;1.02;;;14.70;99.90;;;;;;5003974;28;20077;-70
2022/07/11 02:23:26;;;;;;;2.83;1.27;;;14.70;99.90;;;;;;5003184;28;20050;-69
2022/07/11 02:25:53;;;;;;;7.00;1.40;;;14.80;99.90;;;;;;5002959;28;20077;-71
2022/07/11 02:28:19;;;;;;;2.00;1.20;;;14.80;99.90;;;;;;5003642;28;20086;-70
2022/07/11 02:30:45;;;;;;;3.05;1.20;;;14.70;99.90;;;;;;5004384;28;20058;-71
2022/07/11 02:33:15;;;;;;;5.55;1.75;;;14.70;99.90;;;;;;5002876;28;20023;-70
2022/07/11 02:35:48;;;;;;;5.20;1.00;;;14.70;99.90;;;;;;5003783;28;20098;-70
2022/07/11 02:38:15;;;;;;;3.00;1.20;;;14.70;99.90;;;;;;5003270;28;20029;-69
2022/07/11 02:40:40;;;;;;;1.27;0.90;;;14.70;99.90;;;;;;5002586;28;20161;-70
2022/07/11 02:43:06;;;;;;;2.50;1.10;;;14.70;99.90;;;;;;5003879;28;20731;-69
2022/07/11 02:45:32;;;;;;;3.50;1.42;;;14.70;99.90;;;;;;5003147;28;20457;-70
2022/07/11 02:47:57;;;;;;;1.95;1.33;;;14.70;99.90;;;;;;5003926;28;20023;-69
2022/07/11 02:50:23;;;;;;;2.17;0.60;;;14.70;99.90;;;;;;5003054;28;20038;-70
2022/07/11 02:52:49;;;;;;;1.88;1.27;;;14.80;99.90;;;;;;5003589;28;20109;-70
2022/07/11 02:55:15;;;;;;;3.22;1.25;;;14.70;99.90;;;;;;5003442;28;20026;-67
2022/07/11 02:57:41;;;;;;;4.28;1.27;;;14.70;99.90;;;;;;5003826;28;20026;-70
2022/07/11 03:00:15;;;;;;;3.20;1.55;;;14.70;99.90;;;;;;5003501;28;20033;-68
2022/07/11 03:02:42;;;;;;;2.13;0.98;;;14.60;99.90;;;;;;5003411;28;20077;-69
2022/07/11 03:05:08;;;;;;;2.10;1.10;;;14.70;99.90;;;;;;5003340;28;20718;-68
2022/07/11 03:07:34;;;;;;;1.75;0.93;;;14.60;99.90;;;;;;5003354;28;20631;-71
2022/07/11 03:10:00;;;;;;;1.73;1.13;;;14.60;99.90;;;;;;5002846;28;21481;-69
2022/07/11 03:12:26;;;;;;;10.93;1.38;;;14.60;99.90;;;;;;5003241;28;20038;-71
2022/07/11 03:14:51;;;;;;;4.53;1.63;;;14.60;99.90;;;;;;5002731;28;20025;-70
2022/07/11 03:17:17;;;;;;;8.73;1.25;;;14.50;99.90;;;;;;5003195;28;20487;-69
2022/07/11 03:19:43;;;;;;;3.22;1.02;;;14.50;99.90;;;;;;5003546;28;20099;-69
2022/07/11 03:22:09;;;;;;;2.63;1.05;;;14.50;99.90;;;;;;5002668;28;20050;-69
2022/07/11 03:24:35;;;;;;;0.30;0.30;;;14.50;99.90;;;;;;5001824;28;20046;-71
2022/07/11 03:27:01;;;;;;;1.77;0.95;;;14.50;99.90;;;;;;5002584;28;20029;-70
2022/07/11 03:29:26;;;;;;;1.73;0.65;;;14.50;99.90;;;;;;5002411;28;20026;-70
2022/07/11 03:31:52;;;;;;;1.15;0.60;;;14.50;99.90;;;;;;5002352;28;20086;-70
2022/07/11 03:34:18;;;;;;;2.35;1.00;;;14.40;99.90;;;;;;5002627;28;20030;-72
2022/07/11 03:36:46;;;;;;;0.63;0.40;;;14.40;99.90;;;;;;5002820;28;20035;-69
2022/07/11 03:39:13;;;;;;;3.08;1.20;;;14.40;99.90;;;;;;4999633;28;20454;-70
2022/07/11 03:41:40;;;;;;;1.08;0.77;;;14.50;99.90;;;;;;5001369;28;20519;-70
2022/07/11 03:44:06;;;;;;;1.30;0.82;;;14.50;99.90;;;;;;4998226;28;20046;-70
2022/07/11 03:46:31;;;;;;;2.08;0.82;;;14.50;99.90;;;;;;5001654;28;20125;-70
2022/07/11 03:48:58;;;;;;;1.23;0.82;;;14.50;99.90;;;;;;5002125;28;20427;-69
2022/07/11 03:51:24;;;;;;;4.35;1.23;;;14.50;99.90;;;;;;5001663;28;20018;-69
2022/07/11 03:53:49;;;;;;;4.25;1.05;;;14.50;99.90;;;;;;5000284;28;20232;-70
2022/07/11 03:56:18;;;;;;;1.30;1.05;;;14.50;99.90;;;;;;4999273;28;20029;-71
2022/07/11 03:58:43;;;;;;;1.13;0.60;;;14.50;99.90;;;;;;5002239;28;20097;-70
2022/07/11 04:01:09;;;;;;;1.60;0.75;;;14.60;99.90;;;;;;5002175;28;20048;-72
2022/07/11 04:03:35;;;;;;;2.65;0.98;;;14.50;99.90;;;;;;5001882;28;20065;-71
2022/07/11 04:06:01;;;;;;;2.60;1.20;;;14.50;99.90;;;;;;5001437;28;20027;-69
2022/07/11 04:08:27;;;;;;;2.92;1.60;;;14.50;99.90;;;;;;5001377;28;20031;-70
2022/07/11 04:10:52;;;;;;;1.48;1.13;;;14.60;99.90;;;;;;5002028;28;20104;-70
2022/07/11 04:13:18;;;;;;;4.45;1.30;;;14.60;99.90;;;;;;5000438;28;20394;-69
2022/07/11 04:15:43;;;;;;;2.45;1.35;;;14.60;99.90;;;;;;5001390;28;20070;-68
2022/07/11 04:18:09;;;;;;;1.45;1.15;;;14.60;99.90;;;;;;5001933;28;20022;-70
2022/07/11 04:20:34;;;;;;;2.83;1.65;;;14.60;99.90;;;;;;5001629;28;20086;-71
2022/07/11 04:23:00;;;;;;;1.55;0.98;;;14.60;99.90;;;;;;4999932;28;20057;-68
2022/07/11 04:25:25;;;;;;;2.90;1.33;;;14.60;99.90;;;;;;5000858;28;20878;-68
2022/07/11 04:27:51;;;;;;;3.15;1.02;;;14.60;99.90;;;;;;5001756;28;20034;-69
2022/07/11 04:30:16;;;;;;;1.58;1.00;;;14.50;99.90;;;;;;5002259;28;20038;-72
2022/07/11 04:32:42;;;;;;;2.55;1.35;;;14.50;99.90;;;;;;5002037;28;20018;-69
2022/07/11 04:35:08;;;;;;;1.88;1.15;;;14.60;99.90;;;;;;5002016;28;20026;-71
2022/07/11 04:37:34;;;;;;;1.25;0.93;;;14.50;99.90;;;;;;5004556;28;20069;-70
2022/07/11 04:39:59;;;;;;;1.90;1.33;;;14.60;99.90;;;;;;5005573;28;20905;-70
2022/07/11 04:42:25;;;;;;;1.90;0.98;;;14.60;99.90;;;;;;5004652;28;20023;-73
2022/07/11 04:44:50;;;;;;;8.57;1.33;;;14.60;99.90;;;;;;5006061;28;20026;-71
2022/07/11 04:47:16;;;;;;;1.70;1.02;;;14.60;99.90;;;;;;5004647;28;20034;-71
2022/07/11 04:49:46;;;;;;;1.50;0.60;;;14.60;99.90;;;;;;5004856;28;20053;-70
2022/07/11 04:52:12;;;;;;;2.70;0.82;;;14.60;99.90;;;;;;5006185;28;20037;-72
2022/07/11 04:54:38;;;;;;;1.35;0.77;;;14.60;99.90;;;;;;5005101;28;20018;-71
2022/07/11 04:57:04;;;;;;;1.08;0.70;;;14.60;99.90;;;;;;5003548;28;20199;-71
2022/07/11 04:59:29;;;;;;;1.77;0.77;;;14.60;99.90;;;;;;5004984;28;20035;-71
2022/07/11 05:01:55;;;;;;;0.63;0.50;;;14.60;99.90;;;;;;5002394;28;20034;-72
2022/07/11 05:04:20;;;;;;;0.90;0.77;;;14.60;99.90;;;;;;5004335;28;20125;-70
2022/07/11 05:06:46;;;;;;;1.63;0.77;;;14.60;99.90;;;;;;5004096;28;20036;-70
2022/07/11 05:09:12;;;;;;;0.40;0.35;;;14.60;99.90;;;;;;5003948;28;20045;-73
2022/07/11 05:11:38;;;;;;;0.52;0.43;;;14.60;99.90;;;;;;5005664;28;20030;-72
2022/07/11 05:14:03;;;;;;;0.55;0.55;;;14.70;99.90;;;;;;5004871;28;20034;-71
2022/07/11 05:16:29;;;;;;;0.88;0.50;;;14.70;99.90;;;;;;5005647;28;20084;-71
2022/07/11 05:18:54;;;;;;;0.85;0.60;;;14.80;99.90;;;;;;5005782;28;20054;-71
2022/07/11 05:21:22;;;;;;;0.73;0.47;;;14.80;99.90;;;;;;5003947;28;20101;-72
2022/07/11 05:23:48;;;;;;;0.43;0.43;;;14.90;99.90;;;;;;5005098;28;20150;-72
2022/07/11 05:26:14;;;;;;;0.77;0.52;;;14.90;99.90;;;;;;5001376;28;20038;-73
2022/07/11 05:28:41;;;;;;;2.17;0.80;;;14.80;99.90;;;;;;5002774;28;20100;-72
2022/07/11 05:31:07;;;;;;;1.25;0.65;;;14.80;99.90;;;;;;5003094;28;20035;-74
2022/07/11 05:33:34;;;;;;;1.88;0.88;;;14.80;99.90;;;;;;5002221;28;20033;-72
2022/07/11 05:36:00;;;;;;;1.55;0.60;;;14.80;99.90;;;;;;5002673;28;20719;-73
2022/07/11 05:38:26;;;;;;;1.38;0.70;;;14.80;99.90;;;;;;5001513;28;20050;-72
2022/07/11 05:40:52;;;;;;;1.50;0.95;;;14.90;99.90;;;;;;5001958;28;20033;-72
2022/07/11 05:43:17;;;;;;;0.88;0.70;;;14.90;99.90;;;;;;5003017;28;20022;-72
2022/07/11 05:45:43;;;;;;;1.20;0.90;;;14.90;99.90;;;;;;5003305;28;20110;-73
2022/07/11 05:48:09;;;;;;;1.08;0.90;;;14.90;99.90;;;;;;5001020;28;20089;-72
2022/07/11 05:50:35;;;;;;;0.80;0.70;;;14.90;99.90;;;;;;5003365;28;20454;-73
2022/07/11 05:53:02;;;;;;;1.65;0.95;;;14.90;99.90;;;;;;5002936;28;20766;-70
2022/07/11 05:55:28;;;;;;;1.17;0.88;;;14.90;99.90;;;;;;5003887;28;20372;-73
2022/07/11 05:57:53;;;;;;;1.77;1.35;;;14.90;99.90;;;;;;5004221;28;20022;-72
2022/07/11 06:00:21;;;;;;;2.70;1.00;;;14.90;99.90;;;;;;5004915;28;20054;-72
2022/07/11 06:02:47;;;;;;;2.65;0.93;;;14.90;99.90;;;;;;5002394;28;20067;-73
2022/07/11 06:05:12;;;;;;;2.15;1.45;;;15.00;99.90;;;;;;5001162;28;20047;-72
2022/07/11 06:10:22;;;;;;;1.90;0.95;;;15.00;99.90;;;;;;5004270;28;20085;-72
2022/07/11 06:12:48;;;;;;;1.42;0.77;;;15.00;99.90;;;;;;5004729;28;20042;-71
2022/07/11 06:15:13;;;;;;;1.60;0.65;;;15.00;99.90;;;;;;5003827;28;20041;-73
2022/07/11 06:17:39;;;;;;;5.57;1.15;;;15.00;99.90;;;;;;5001161;28;20037;-73
2022/07/11 06:20:05;;;;;;;1.08;0.60;;;15.10;99.90;;;;;;5003316;28;20054;-73
2022/07/11 06:22:31;;;;;;;1.48;0.93;;;15.10;99.90;;;;;;5003805;28;20035;-72
2022/07/11 06:24:57;;;;;;;0.70;0.52;;;15.10;99.90;;;;;;5004097;28;20026;-72
2022/07/11 06:27:23;;;;;;;2.25;1.02;;;15.10;99.90;;;;;;5002882;28;20049;-70
2022/07/11 06:29:48;;;;;;;1.30;0.75;;;15.10;99.90;;;;;;5003288;28;20050;-69
2022/07/11 06:32:14;;;;;;;1.35;0.80;;;15.20;99.90;;;;;;5002743;28;20038;-70
2022/07/11 06:34:39;;;;;;;2.38;0.80;;;15.10;99.90;;;;;;5003401;28;20041;-72
2022/07/11 06:37:05;;;;;;;1.48;0.88;;;15.10;99.90;;;;;;5002674;28;20058;-70
2022/07/11 06:39:31;;;;;;;0.80;0.80;;;15.20;99.90;;;;;;5001519;28;20055;-71
2022/07/11 06:41:56;;;;;;;0.75;0.50;;;15.10;99.90;;;;;;5003476;28;20026;-71
2022/07/11 06:44:22;;;;;;;2.45;0.90;;;15.20;99.90;;;;;;5003338;28;20475;-71
2022/07/11 06:46:48;;;;;;;9.52;0.93;;;15.10;99.90;;;;;;5001505;28;20089;-70
2022/07/11 06:49:14;;;;;;;0.60;0.43;;;15.20;99.90;;;;;;5001175;28;20507;-70
2022/07/11 06:51:39;;;;;;;2.70;0.45;;;15.20;99.90;;;;;;5002716;28;20030;-69
2022/07/11 06:54:05;;;;;;;6.00;0.60;;;15.30;99.90;;;;;;5000376;28;20479;-71
2022/07/11 06:56:31;;;;;;;1.10;0.75;;;15.30;99.90;;;;;;5002897;28;20057;-71
2022/07/11 06:59:01;;;;;;;1.92;0.90;;;15.40;99.90;;;;;;5000299;28;20026;-70
2022/07/11 07:01:26;;;;;;;3.95;1.83;;;15.50;99.90;;;;;;5001547;28;20120;-70
2022/07/11 07:03:52;;;;;;;1.20;0.60;;;15.50;99.90;;;;;;5003063;28;20082;-70
2022/07/11 07:06:19;;;;;;;0.77;0.55;;;15.70;99.90;;;;;;5001990;28;20102;-70
2022/07/11 07:08:45;;;;;;;2.33;0.50;;;15.70;99.90;;;;;;5002974;28;20049;-71
2022/07/11 07:11:11;;;;;;;1.95;0.68;;;15.80;99.90;;;;;;5002167;28;20097;-70
2022/07/11 07:13:37;;;;;;;0.68;0.40;;;15.80;99.90;;;;;;5000837;28;20086;-70
2022/07/11 07:16:04;;;;;;;0.45;0.43;;;15.90;99.90;;;;;;5002208;28;20040;-70
2022/07/11 07:18:30;;;;;;;0.55;0.50;;;15.90;99.90;;;;;;5000456;28;20014;-70
2022/07/11 07:20:55;;;;;;;0.80;0.60;;;16.00;99.90;;;;;;5002104;28;20115;-71
2022/07/11 07:23:21;;;;;;;0.40;0.40;;;15.90;99.90;;;;;;5003346;28;20030;-70
2022/07/11 07:25:47;;;;;;;0.88;0.63;;;15.90;99.90;;;;;;5002344;28;20034;-70
2022/07/11 07:28:12;;;;;;;0.60;0.30;;;15.90;99.90;;;;;;5003095;28;20028;-68
2022/07/11 07:30:38;;;;;;;1.00;0.77;;;15.90;99.90;;;;;;5003052;28;20034;-72
2022/07/11 07:33:04;;;;;;;0.43;0.40;;;15.90;99.90;;;;;;5002182;28;20026;-68
2022/07/11 07:35:30;;;;;;;0.32;0.20;;;15.80;99.90;;;;;;5002664;28;20034;-71
2022/07/11 07:37:55;;;;;;;0.75;0.40;;;15.70;99.90;;;;;;5001649;28;20027;-70
2022/07/11 07:40:21;;;;;;;0.68;0.52;;;15.70;99.90;;;;;;5000090;28;20050;-69
2022/07/11 07:42:47;;;;;;;1.00;0.30;;;15.70;99.90;;;;;;5000922;28;20054;-71
2022/07/11 07:45:13;;;;;;;1.27;0.40;;;15.70;99.90;;;;;;5000964;28;20038;-69
2022/07/11 07:47:38;;;;;;;0.75;0.43;;;15.70;99.90;;;;;;4998992;28;20038;-70
2022/07/11 07:50:06;;;;;;;2.63;0.32;;;15.70;99.90;;;;;;5002237;28;20130;-70
2022/07/11 07:52:32;;;;;;;0.10;0.10;;;15.70;99.90;;;;;;4998867;28;20034;-69
2022/07/11 07:54:58;;;;;;;0.13;0.13;;;15.80;99.90;;;;;;4998860;28;20076;-68
2022/07/11 07:57:24;;;;;;;0.13;0.13;;;15.90;99.90;;;;;;5000886;28;20082;-68
2022/07/11 07:59:49;;;;;;;0.63;0.25;;;16.00;99.90;;;;;;4998882;28;20736;-69
2022/07/11 08:02:15;;;;;;;6.22;0.55;;;16.10;99.90;;;;;;5000928;28;20031;-69
2022/07/11 08:04:41;;;;;;;0.10;0.10;;;16.20;99.90;;;;;;5001863;28;20046;-70
2022/07/11 08:07:07;;;;;;;1.23;0.40;;;16.30;99.90;;;;;;5001466;28;20739;-69
2022/07/11 08:09:32;;;;;;;0.17;0.13;;;16.40;99.90;;;;;;5001237;28;20116;-68
2022/07/11 08:11:58;;;;;;;5.40;0.50;;;16.40;99.90;;;;;;5000491;28;20090;-67
2022/07/11 08:14:24;;;;;;;2.95;0.65;;;16.40;99.90;;;;;;4999078;28;20042;-69
2022/07/11 08:16:50;;;;;;;0.52;0.32;;;16.40;99.90;;;;;;5001901;28;20113;-69
2022/07/11 08:19:16;;;;;;;0.20;0.20;;;16.40;99.90;;;;;;5002233;28;20041;-69
2022/07/11 08:21:41;;;;;;;0.45;0.35;;;16.40;99.90;;;;;;5000184;28;20423;-70
2022/07/11 08:24:07;;;;;;;2.05;0.47;;;16.50;99.90;;;;;;4997955;28;20194;-70
2022/07/11 08:26:33;;;;;;;0.25;0.20;;;16.50;99.90;;;;;;5000331;28;20426;-73
2022/07/11 08:29:00;;;;;;;0.00;0.00;;;16.50;99.90;;;;;;4996742;28;20057;-70
2022/07/11 08:31:26;;;;;;;0.17;0.00;;;16.50;99.90;;;;;;5001069;28;20026;-69
2022/07/11 08:33:52;;;;;;;0.52;0.13;;;16.50;99.90;;;;;;5001386;28;20040;-69
2022/07/11 08:36:18;;;;;;;0.28;0.10;;;16.50;99.90;;;;;;4998171;28;20023;-69
2022/07/11 08:38:46;;;;;;;0.52;0.10;;;16.50;99.90;;;;;;5000398;28;20085;-69
2022/07/11 08:41:13;;;;;;;0.22;0.08;;;16.50;99.90;;;;;;5000714;28;20084;-73
2022/07/11 08:43:41;;;;;;;0.30;0.13;;;16.60;99.90;;;;;;5000715;28;20054;-71
2022/07/11 08:46:13;;;;;;;0.35;0.30;;;16.60;99.90;;;;;;5000975;28;20438;-69
2022/07/11 08:48:40;;;;;;;0.30;0.20;;;16.70;99.90;;;;;;4999084;28;20089;-72
2022/07/11 08:51:08;;;;;;;0.28;0.28;;;16.80;99.90;;;;;;5000684;28;20018;-71
2022/07/11 08:53:39;;;;;;;0.17;0.10;;;16.90;99.90;;;;;;4997796;28;20039;-70
2022/07/11 08:56:09;;;;;;;0.20;0.20;;;16.90;99.90;;;;;;5000904;28;20027;-70
2022/07/11 08:58:37;;;;;;;2.22;0.17;;;17.00;99.90;;;;;;4999170;28;20477;-71
2022/07/11 09:01:02;;;;;;;0.20;0.10;;;17.00;99.90;;;;;;5000528;28;20046;-70
2022/07/11 09:03:28;;;;;;;0.10;0.10;;;17.00;99.90;;;;;;5000103;28;20090;-71
2022/07/11 09:05:54;;;;;;;0.00;0.00;;;17.10;99.90;;;;;;5000849;28;20037;-72
2022/07/11 09:08:21;;;;;;;0.85;0.22;;;17.00;99.90;;;;;;5000832;28;20034;-71
2022/07/11 09:10:47;;;;;;;0.43;0.30;;;17.10;99.90;;;;;;5000724;28;20030;-71
2022/07/11 09:13:14;;;;;;;0.10;0.10;;;17.00;99.90;;;;;;5000273;28;20037;-70
2022/07/11 09:15:48;;;;;;;0.00;0.00;;;17.10;99.90;;;;;;4999626;28;20026;-72
2022/07/11 09:18:44;;;;;;;1.35;0.17;;;17.10;99.90;;;;;;4999418;28;20054;-70
2022/07/11 09:26:48;;;;;;;0.40;0.10;;;17.10;99.90;;;;;;5003509;28;20041;-73
2022/07/11 09:29:16;;;;;;;0.10;0.00;;;17.20;99.90;;;;;;5004050;28;20042;-70
2022/07/11 09:31:46;;;;;;;0.43;0.10;;;17.20;99.90;;;;;;5004279;28;20060;-70
2022/07/11 09:34:19;;;;;;;0.00;0.00;;;17.30;99.90;;;;;;5004448;28;20036;-70
2022/07/11 09:36:44;;;;;;;0.00;0.00;;;17.50;99.90;;;;;;5003893;28;20109;-70
2022/07/11 09:39:21;;;;;;;0.05;0.00;;;17.40;99.90;;;;;;5004148;28;20078;-70
2022/07/11 09:41:50;;;;;;;0.20;0.20;;;17.50;99.90;;;;;;5002643;28;20045;-70
2022/07/11 09:44:28;;;;;;;0.20;0.10;;;17.40;99.90;;;;;;5004206;28;20030;-70
2022/07/11 09:46:55;;;;;;;0.10;0.10;;;17.30;99.90;;;;;;5004128;28;20031;-69
2022/07/11 09:49:35;;;;;;;0.63;0.20;;;17.20;99.90;;;;;;5002885;28;20112;-69
2022/07/11 09:52:15;;;;;;;0.30;0.20;;;17.20;99.90;;;;;;5003083;28;20026;-69
2022/07/11 09:54:54;;;;;;;0.30;0.30;;;17.20;99.90;;;;;;5002340;28;20122;-69
2022/07/11 09:57:28;;;;;;;0.40;0.38;;;17.30;99.90;;;;;;4998971;28;20073;-69
2022/07/11 09:59:54;;;;;;;;;;;17.40;99.90;;;;;;5001940;28;20026;-68
2022/07/11 10:02:20;;;;;;;0.30;0.20;;;17.50;99.90;;;;;;5001992;28;19920;-70
2022/07/11 10:04:47;;;;;;;0.38;0.20;;;17.60;99.90;;;;;;4998919;28;20049;-71
2022/07/11 10:07:12;;;;;;;0.40;0.28;;;17.70;99.90;;;;;;5001867;28;20026;-69
2022/07/11 10:09:38;;;;;;;1.65;0.32;;;17.80;99.90;;;;;;5002462;28;20566;-71
2022/07/11 10:12:04;;;;;;;0.40;0.20;;;17.70;99.90;;;;;;5000762;28;20034;-67
2022/07/11 10:14:30;;;;;;;0.28;0.20;;;17.70;99.90;;;;;;5002666;28;20114;-70
2022/07/11 10:17:02;;;;;;;0.43;0.30;;;17.60;99.90;;;;;;5002786;28;20060;-69
2022/07/11 10:20:06;;;;;;;0.10;0.10;;;17.60;99.90;;;;;;4998173;28;20106;-69
2022/07/11 10:22:55;;;;;;;0.65;0.28;;;17.60;99.90;;;;;;5002226;28;20053;-69
2022/07/11 10:25:27;;;;;;;0.38;0.32;;;17.70;99.90;;;;;;5001403;28;20026;-69
2022/07/11 10:28:06;;;;;;;0.10;0.10;;;17.80;99.90;;;;;;5000783;28;20077;-70
2022/07/11 10:30:50;;;;;;;0.88;0.47;;;17.80;99.90;;;;;;5003386;28;20038;-69
2022/07/11 10:33:18;;;;;;;0.43;0.30;;;17.90;99.90;;;;;;5003019;28;20034;-71
2022/07/11 10:35:52;;;;;;;0.55;0.25;;;17.80;99.90;;;;;;5000304;28;20038;-69
2022/07/11 10:38:19;;;;;;;0.10;0.10;;;17.80;99.90;;;;;;4996879;28;20034;-69
2022/07/11 10:40:48;;;;;;;0.80;0.30;;;17.70;99.90;;;;;;5001281;28;20058;-70
2022/07/11 10:43:30;;;;;;;0.20;0.20;;;17.60;99.90;;;;;;5001450;28;20518;-71
2022/07/11 10:46:01;;;;;;;0.50;0.28;;;17.60;99.90;;;;;;4998518;28;20443;-69
2022/07/11 10:48:30;;;;;;;0.47;0.38;;;17.50;99.90;;;;;;4998788;28;20038;-70
2022/07/11 10:51:15;;;;;;;0.30;0.30;;;17.40;99.90;;;;;;4999963;28;20113;-69
2022/07/11 10:53:46;;;;;;;1.25;0.63;;;17.40;99.90;;;;;;5004679;28;20053;-70
2022/07/11 10:56:20;;;;;;;0.82;0.63;;;17.50;99.90;;;;;;5000322;28;20026;-69
2022/07/11 10:59:12;;;;;;;0.40;0.10;;;17.60;99.90;;;;;;5001420;28;20029;-70
2022/07/11 11:02:02;;;;;;;0.52;0.30;;;17.70;99.90;;;;;;5001354;28;20068;-70
2022/07/11 11:04:48;;;;;;;0.30;0.30;;;17.80;99.90;;;;;;5002512;28;20033;-70
2022/07/11 11:07:33;;;;;;;0.15;0.15;;;17.80;99.90;;;;;;5002108;28;20026;-68
2022/07/11 11:10:01;;;;;;;1.15;0.50;;;17.90;99.90;;;;;;5002240;28;20129;-68
2022/07/11 11:13:04;;;;;;;3.20;0.40;;;17.90;99.90;;;;;;5002280;28;20034;-67
2022/07/11 11:15:51;;;;;;;0.52;0.35;;;17.90;99.90;;;;;;5002042;28;20025;-68
2022/07/11 11:18:25;;;;;;;0.63;0.40;;;17.90;99.90;;;;;;5003068;28;20030;-70
2022/07/11 11:21:00;;;;;;;;;;;17.80;99.90;;;;;;5001526;28;20030;-68
2022/07/11 11:23:31;;;;;;;2.55;0.65;;;17.80;99.90;;;;;;4998834;28;19980;-68
2022/07/11 11:26:17;;;;;;;0.40;0.30;;;17.70;99.90;;;;;;5001241;28;20037;-69
2022/07/11 11:29:00;;;;;;;0.55;0.32;;;17.70;99.90;;;;;;5000474;28;20030;-68
2022/07/11 11:31:27;;;;;;;0.40;0.30;;;17.90;99.90;;;;;;4999283;28;20029;-67
2022/07/11 11:33:53;;;;;;;0.20;0.20;;;18.30;99.90;;;;;;4999355;28;20026;-70
2022/07/11 11:36:24;;;;;;;0.47;0.22;;;18.50;99.90;;;;;;4997800;28;20026;-71
2022/07/11 11:38:50;;;;;;;0.77;0.32;;;18.70;99.90;;;;;;4998504;28;20200;-70
2022/07/11 11:41:23;;;;;;;0.22;0.10;;;18.90;99.90;;;;;;4999852;28;20080;-72
2022/07/11 11:43:49;;;;;;;0.10;0.10;;;19.00;99.90;;;;;;5000657;28;20496;-69
2022/07/11 11:46:15;;;;;;;2.20;0.55;;;19.00;99.90;;;;;;5000046;28;20038;-69
2022/07/11 11:48:46;;;;;;;4.75;0.30;;;19.10;99.90;;;;;;4999849;28;20117;-71
2022/07/11 11:51:18;;;;;;;0.45;0.10;;;19.20;99.90;;;;;;4996470;28;20042;-70
2022/07/11 11:53:47;;;;;;;0.17;0.10;;;19.40;99.90;;;;;;4998914;28;20041;-71
2022/07/11 11:56:29;;;;;;;0.98;0.32;;;19.50;99.90;;;;;;4998781;28;20035;-71
2022/07/11 11:59:02;;;;;;;0.43;0.30;;;19.40;99.90;;;;;;4999062;28;20032;-68
2022/07/11 12:01:30;;;;;;;0.52;0.20;;;19.40;99.90;;;;;;5000394;28;20037;-68
2022/07/11 12:03:59;;;;;;;0.13;0.10;;;19.40;99.90;;;;;;4999806;28;20042;-68
2022/07/11 12:06:27;;;;;;;0.10;0.10;;;19.40;99.90;;;;;;5000285;28;20102;-68
2022/07/11 12:09:02;;;;;;;0.20;0.20;;;19.40;99.90;;;;;;4999582;28;20034;-70
2022/07/11 12:11:28;;;;;;;0.10;0.10;;;19.30;99.90;;;;;;5000276;28;20014;-70
2022/07/11 12:13:58;;;;;;;0.00;0.00;;;19.20;99.90;;;;;;4998678;28;20053;-69
2022/07/11 12:16:41;;;;;;;0.08;0.08;;;19.10;99.90;;;;;;4999491;28;20398;-68
2022/07/11 12:19:14;;;;;;;0.28;0.22;;;19.00;99.90;;;;;;5001642;28;20948;-70
2022/07/11 12:21:42;;;;;;;0.68;0.30;;;18.80;99.90;;;;;;5001617;28;20038;-69
2022/07/11 12:24:30;;;;;;;0.40;0.30;;;18.70;99.90;;;;;;5000038;28;20098;-69
2022/07/11 12:26:57;;;;;;;0.22;0.20;;;18.70;99.90;;;;;;4999066;28;20044;-68
2022/07/11 12:29:24;;;;;;;0.40;0.32;;;18.80;99.90;;;;;;4998520;28;20048;-69
2022/07/11 12:31:55;;;;;;;0.00;0.00;;;19.00;99.90;;;;;;4999128;28;20049;-69
2022/07/11 12:34:32;;;;;;;0.50;0.20;;;19.10;99.90;;;;;;4998731;28;20624;-68
2022/07/11 12:37:06;;;;;;;0.77;0.38;;;19.20;99.90;;;;;;4997462;28;20053;-68
2022/07/11 12:39:33;;;;;;;1.67;0.60;;;19.30;99.90;;;;;;5000945;28;20692;-67
2022/07/11 12:42:00;;;;;;;0.50;0.30;;;19.50;99.90;;;;;;5001351;28;20104;-68
2022/07/11 12:47:24;;;;;;;0.10;0.10;;;19.60;99.90;;;;;;5001027;28;20081;-70
2022/07/11 12:49:50;;;;;;;0.13;0.13;;;19.60;99.90;;;;;;5001349;28;20550;-69
2022/07/11 12:52:17;;;;;;;0.13;0.10;;;19.50;99.90;;;;;;5001666;28;20046;-69
2022/07/11 12:54:43;;;;;;;0.43;0.20;;;19.20;99.90;;;;;;4998810;28;20027;-68
2022/07/11 12:57:10;;;;;;;0.80;0.40;;;19.10;99.90;;;;;;5000459;28;20089;-70
2022/07/11 12:59:38;;;;;;;0.20;0.10;;;19.00;99.90;;;;;;5004403;28;20018;-68
2022/07/11 13:02:09;;;;;;;0.77;0.43;;;19.00;99.90;;;;;;5004154;28;20050;-68
2022/07/11 13:04:39;;;;;;;0.63;0.35;;;19.00;99.90;;;;;;5005291;28;20026;-67